createdAt,value
2018-10-16T00:00:14.683Z,53.37
2018-10-16T00:00:55.281Z,53.4
2018-10-16T00:01:36.013Z,53.2
2018-10-16T00:02:16.591Z,53.49
2018-10-16T00:02:57.168Z,53.3
2018-10-16T00:03:37.728Z,53.97
2018-10-16T00:04:18.296Z,53.69
2018-10-16T00:04:58.874Z,53.78
2018-10-16T00:05:39.448Z,53.78
2018-10-16T00:06:20.002Z,53.97
2018-10-16T00:07:00.580Z,53.85
2018-10-16T00:07:41.139Z,53.78
2018-10-16T00:08:21.740Z,53.78
2018-10-16T00:09:02.282Z,53.97
2018-10-16T00:09:42.906Z,53.88
2018-10-16T00:10:23.456Z,53.97
2018-10-16T00:11:04.103Z,53.85
2018-10-16T00:11:44.659Z,54.07
2018-10-16T00:12:25.231Z,54.07
2018-10-16T00:13:05.780Z,54.26
2018-10-16T00:13:46.343Z,54.16
2018-10-16T00:14:26.928Z,54.26
2018-10-16T00:15:07.500Z,54.16
2018-10-16T00:15:48.089Z,54.26
2018-10-16T00:16:28.657Z,53.97
2018-10-16T00:17:09.207Z,53.78
2018-10-16T00:17:49.805Z,53.97
2018-10-16T00:18:30.391Z,53.88
2018-10-16T00:19:10.952Z,53.88
2018-10-16T00:19:51.534Z,54.33
2018-10-16T00:20:32.098Z,54.14
2018-10-16T00:21:12.664Z,53.94
2018-10-16T00:21:53.246Z,54.14
2018-10-16T00:22:33.809Z,54.23
2018-10-16T00:23:15.173Z,54.52
2018-10-16T00:23:55.725Z,54.52
2018-10-16T00:24:36.293Z,54.52
2018-10-16T00:25:16.890Z,54.33
2018-10-16T00:25:57.483Z,54.61
2018-10-16T00:26:38.051Z,54.43
2018-10-16T00:27:18.623Z,54.23
2018-10-16T00:27:59.203Z,54.33
2018-10-16T00:28:39.777Z,54.61
2018-10-16T00:29:20.370Z,54.43
2018-10-16T00:30:00.929Z,54.52
2018-10-16T00:30:41.511Z,54.43
2018-10-16T00:31:22.089Z,54.61
2018-10-16T00:32:02.637Z,54.52
2018-10-16T00:32:43.248Z,54.8
2018-10-16T00:33:23.780Z,54.8
2018-10-16T00:34:04.365Z,55
2018-10-16T00:34:44.934Z,54.9
2018-10-16T00:35:25.511Z,54.71
2018-10-16T00:36:06.056Z,54.9
2018-10-16T00:36:46.616Z,55.29
2018-10-16T00:37:27.199Z,55.1
2018-10-16T00:38:07.760Z,55.19
2018-10-16T00:38:48.345Z,55.19
2018-10-16T00:39:28.868Z,55.1
2018-10-16T00:40:09.494Z,55
2018-10-16T00:40:50.045Z,55.1
2018-10-16T00:41:30.613Z,55
2018-10-16T00:42:11.172Z,55
2018-10-16T00:42:51.727Z,55.47
2018-10-16T00:43:32.299Z,55.38
2018-10-16T00:44:12.881Z,55.47
2018-10-16T00:44:53.445Z,56.05
2018-10-16T00:45:34.022Z,56.05
2018-10-16T00:46:14.679Z,55.76
2018-10-16T00:46:55.224Z,55.86
2018-10-16T00:47:35.821Z,55.96
2018-10-16T00:48:16.406Z,55.96
2018-10-16T00:48:56.958Z,56.05
2018-10-16T00:49:37.563Z,56.15
2018-10-16T00:50:18.156Z,56.31
2018-10-16T00:50:58.790Z,56.24
2018-10-16T00:51:39.391Z,56.12
2018-10-16T00:52:19.953Z,55.67
2018-10-16T00:53:00.538Z,56.05
2018-10-16T00:53:41.103Z,56.05
2018-10-16T00:54:21.655Z,55.83
2018-10-16T00:55:02.290Z,55.83
2018-10-16T00:55:42.794Z,56.02
2018-10-16T00:56:23.390Z,55.74
2018-10-16T00:57:04.007Z,56.4
2018-10-16T00:57:44.563Z,56.31
2018-10-16T00:58:25.151Z,56.31
2018-10-16T00:59:05.718Z,56.02
2018-10-16T00:59:46.300Z,56.21
2018-10-16T01:00:26.896Z,56.6
2018-10-16T01:01:07.442Z,56.69
2018-10-16T01:01:48.066Z,56.72
2018-10-16T01:02:28.645Z,56.88
2018-10-16T01:03:09.234Z,57.07
2018-10-16T01:03:49.800Z,56.98
2018-10-16T01:04:30.438Z,56.91
2018-10-16T01:05:10.998Z,56.82
2018-10-16T01:05:51.609Z,56.98
2018-10-16T01:06:32.223Z,56.91
2018-10-16T01:07:12.801Z,57.1
2018-10-16T01:07:53.362Z,57.17
2018-10-16T01:08:33.938Z,57.1
2018-10-16T01:09:14.532Z,57.29
2018-10-16T01:09:55.103Z,57.46
2018-10-16T01:10:35.670Z,57.65
2018-10-16T01:11:16.268Z,57.46
2018-10-16T01:11:56.851Z,57.46
2018-10-16T01:12:37.415Z,57.55
2018-10-16T01:13:18.100Z,57.46
2018-10-16T01:13:58.539Z,57.17
2018-10-16T01:14:39.139Z,57.93
2018-10-16T01:15:19.725Z,57.75
2018-10-16T01:16:00.296Z,57.65
2018-10-16T01:16:40.870Z,58.22
2018-10-16T01:17:21.478Z,58.22
2018-10-16T01:18:02.062Z,58.32
2018-10-16T01:18:42.622Z,58.12
2018-10-16T01:19:23.202Z,58.12
2018-10-16T01:20:03.784Z,58.22
2018-10-16T01:20:44.344Z,58.51
2018-10-16T01:21:24.889Z,58.32
2018-10-16T01:22:05.492Z,58.22
2018-10-16T01:22:46.084Z,58.12
2018-10-16T01:23:26.670Z,58.03
2018-10-16T01:24:07.260Z,58.12
2018-10-16T01:24:47.836Z,58.12
2018-10-16T01:25:28.416Z,58.03
2018-10-16T01:26:08.979Z,58.22
2018-10-16T01:26:49.529Z,58.12
2018-10-16T01:27:30.093Z,58.22
2018-10-16T01:28:10.655Z,58.12
2018-10-16T01:28:51.241Z,58.03
2018-10-16T01:29:31.817Z,57.93
2018-10-16T01:30:12.382Z,58.03
2018-10-16T01:30:52.944Z,58.32
2018-10-16T01:31:33.505Z,58.03
2018-10-16T01:32:14.093Z,58.03
2018-10-16T01:32:54.651Z,58.22
2018-10-16T01:33:35.230Z,58.03
2018-10-16T01:34:15.778Z,57.93
2018-10-16T01:34:56.350Z,58.41
2018-10-16T01:35:36.928Z,58.32
2018-10-16T01:36:17.485Z,58.51
2018-10-16T01:36:58.076Z,58.51
2018-10-16T01:37:38.649Z,58.22
2018-10-16T01:38:19.207Z,58.41
2018-10-16T01:38:59.772Z,58.51
2018-10-16T01:39:40.333Z,58.51
2018-10-16T01:40:20.892Z,58.8
2018-10-16T01:41:01.478Z,58.7
2018-10-16T01:41:42.045Z,58.8
2018-10-16T01:42:22.618Z,58.8
2018-10-16T01:43:03.221Z,58.7
2018-10-16T01:43:43.767Z,58.61
2018-10-16T01:44:24.356Z,59.18
2018-10-16T01:45:04.934Z,59.27
2018-10-16T01:45:45.505Z,59.27
2018-10-16T01:46:26.065Z,58.89
2018-10-16T01:47:06.663Z,58.7
2018-10-16T01:47:47.227Z,58.8
2018-10-16T01:48:27.794Z,58.61
2018-10-16T01:49:08.371Z,59.08
2018-10-16T01:49:48.961Z,59.27
2018-10-16T01:50:29.551Z,58.89
2018-10-16T01:51:10.119Z,59.56
2018-10-16T01:51:50.717Z,59.37
2018-10-16T01:52:31.287Z,58.89
2018-10-16T01:53:11.861Z,58.98
2018-10-16T01:53:52.424Z,59.47
2018-10-16T01:54:32.991Z,59.37
2018-10-16T01:55:13.572Z,59.66
2018-10-16T01:55:54.142Z,59.56
2018-10-16T01:56:34.707Z,59.66
2018-10-16T01:57:15.289Z,60.13
2018-10-16T01:57:55.855Z,59.94
2018-10-16T01:58:36.436Z,60.13
2018-10-16T01:59:17.019Z,60.61
2018-10-16T01:59:57.582Z,60.42
2018-10-16T02:00:38.137Z,60.33
2018-10-16T02:01:18.700Z,60.23
2018-10-16T02:01:59.265Z,60.13
2018-10-16T02:02:39.841Z,60.8
2018-10-16T02:03:20.437Z,60.71
2018-10-16T02:04:01.010Z,60.33
2018-10-16T02:04:41.592Z,60.52
2018-10-16T02:05:22.155Z,60.33
2018-10-16T02:06:02.760Z,60.33
2018-10-16T02:06:43.312Z,59.94
2018-10-16T02:07:23.899Z,60.13
2018-10-16T02:08:05.121Z,60.39
2018-10-16T02:08:45.729Z,60.39
2018-10-16T02:09:26.317Z,60.49
2018-10-16T02:10:06.858Z,60.1
2018-10-16T02:10:47.455Z,60.68
2018-10-16T02:11:28.038Z,60.68
2018-10-16T02:12:08.629Z,60.58
2018-10-16T02:12:49.190Z,60.68
2018-10-16T02:13:29.749Z,60.68
2018-10-16T02:14:10.318Z,60.58
2018-10-16T02:14:50.993Z,60.77
2018-10-16T02:15:31.452Z,60.2
2018-10-16T02:16:12.010Z,60.1
2018-10-16T02:16:52.598Z,60.39
2018-10-16T02:17:33.180Z,60.77
2018-10-16T02:18:13.764Z,61.16
2018-10-16T02:18:54.343Z,60.49
2018-10-16T02:19:34.913Z,60.58
2018-10-16T02:20:15.525Z,60.49
2018-10-16T02:20:56.141Z,60.58
2018-10-16T02:21:36.688Z,60.49
2018-10-16T02:22:17.271Z,60.3
2018-10-16T02:22:57.854Z,60.39
2018-10-16T02:23:38.442Z,60.49
2018-10-16T02:24:19.023Z,60.39
2018-10-16T02:24:59.632Z,60.39
2018-10-16T02:25:40.181Z,60.58
2018-10-16T02:26:20.774Z,60.58
2018-10-16T02:27:01.361Z,61.06
2018-10-16T02:27:41.943Z,61.06
2018-10-16T02:28:22.525Z,60.87
2018-10-16T02:29:03.096Z,61.06
2018-10-16T02:29:43.669Z,61.06
2018-10-16T02:30:24.239Z,61.06
2018-10-16T02:31:04.798Z,61.25
2018-10-16T02:31:45.361Z,61.16
2018-10-16T02:32:25.942Z,60.87
2018-10-16T02:33:06.516Z,61.16
2018-10-16T02:33:47.073Z,61.06
2018-10-16T02:34:27.660Z,60.96
2018-10-16T02:35:08.236Z,61.06
2018-10-16T02:35:48.821Z,61.06
2018-10-16T02:36:29.415Z,61.06
2018-10-16T02:37:09.979Z,61.54
2018-10-16T02:37:50.553Z,61.54
2018-10-16T02:38:31.110Z,61.54
2018-10-16T02:39:11.705Z,61.35
2018-10-16T02:39:52.276Z,61.92
2018-10-16T02:40:32.862Z,61.63
2018-10-16T02:41:13.419Z,61.72
2018-10-16T02:41:53.984Z,61.44
2018-10-16T02:42:34.541Z,61.54
2018-10-16T02:43:15.109Z,61.92
2018-10-16T02:43:55.659Z,62.01
2018-10-16T02:44:36.228Z,62.01
2018-10-16T02:45:16.818Z,61.92
2018-10-16T02:45:57.386Z,62.01
2018-10-16T02:46:37.978Z,62.11
2018-10-16T02:47:18.564Z,62.21
2018-10-16T02:47:59.121Z,62.4
2018-10-16T02:48:39.697Z,62.21
2018-10-16T02:49:20.246Z,62.4
2018-10-16T02:50:00.783Z,62.3
2018-10-16T02:50:41.456Z,61.92
2018-10-16T02:51:22.044Z,62.21
2018-10-16T02:52:02.598Z,62.11
2018-10-16T02:52:43.172Z,61.92
2018-10-16T02:53:23.745Z,61.92
2018-10-16T02:54:04.340Z,61.72
2018-10-16T02:54:44.930Z,61.82
2018-10-16T02:55:25.488Z,61.72
2018-10-16T02:56:06.064Z,61.63
2018-10-16T02:56:46.614Z,61.63
2018-10-16T02:57:27.204Z,61.54
2018-10-16T02:58:07.755Z,61.92
2018-10-16T02:58:48.311Z,61.92
2018-10-16T02:59:28.884Z,61.92
2018-10-16T03:00:09.461Z,61.92
2018-10-16T03:00:50.041Z,62.01
2018-10-16T03:01:30.598Z,61.92
2018-10-16T03:02:11.195Z,62.49
2018-10-16T03:02:51.752Z,62.49
2018-10-16T03:03:32.348Z,62.49
2018-10-16T03:04:12.904Z,62.59
2018-10-16T03:04:53.468Z,62.11
2018-10-16T03:05:34.104Z,62.4
2018-10-16T03:06:14.670Z,62.4
2018-10-16T03:06:55.237Z,62.49
2018-10-16T03:07:35.802Z,62.21
2018-10-16T03:08:16.383Z,62.59
2018-10-16T03:08:56.951Z,62.21
2018-10-16T03:09:37.511Z,62.11
2018-10-16T03:10:18.065Z,62.21
2018-10-16T03:10:58.673Z,62.4
2018-10-16T03:11:39.236Z,62.59
2018-10-16T03:12:19.803Z,62.49
2018-10-16T03:13:00.373Z,63.07
2018-10-16T03:13:40.963Z,62.87
2018-10-16T03:14:21.552Z,62.97
2018-10-16T03:15:02.130Z,62.87
2018-10-16T03:15:42.714Z,63.16
2018-10-16T03:16:23.298Z,62.68
2018-10-16T03:17:03.887Z,62.87
2018-10-16T03:17:44.472Z,62.87
2018-10-16T03:18:25.057Z,62.68
2018-10-16T03:19:05.615Z,62.78
2018-10-16T03:19:46.174Z,62.49
2018-10-16T03:20:26.827Z,62.97
2018-10-16T03:21:07.297Z,62.3
2018-10-16T03:21:47.850Z,62.3
2018-10-16T03:22:28.396Z,62.87
2018-10-16T03:23:08.969Z,62.87
2018-10-16T03:23:49.552Z,62.59
2018-10-16T03:24:30.117Z,62.68
2018-10-16T03:25:10.693Z,62.68
2018-10-16T03:25:51.249Z,62.49
2018-10-16T03:26:31.808Z,62.49
2018-10-16T03:27:12.384Z,62.68
2018-10-16T03:27:52.962Z,62.68
2018-10-16T03:28:33.526Z,62.78
2018-10-16T03:29:14.090Z,62.97
2018-10-16T03:29:54.676Z,62.68
2018-10-16T03:30:35.239Z,62.87
2018-10-16T03:31:15.815Z,62.68
2018-10-16T03:31:56.381Z,62.87
2018-10-16T03:32:36.979Z,62.68
2018-10-16T03:33:17.543Z,62.68
2018-10-16T03:33:58.123Z,62.68
2018-10-16T03:34:38.688Z,62.59
2018-10-16T03:35:19.281Z,62.49
2018-10-16T03:35:59.820Z,62.59
2018-10-16T03:36:40.440Z,62.21
2018-10-16T03:37:21.005Z,62.49
2018-10-16T03:38:01.597Z,62.4
2018-10-16T03:38:42.160Z,62.4
2018-10-16T03:39:22.802Z,62.49
2018-10-16T03:40:03.373Z,62.49
2018-10-16T03:40:43.944Z,62.78
2018-10-16T03:41:24.519Z,62.87
2018-10-16T03:42:05.089Z,62.68
2018-10-16T03:42:45.665Z,62.59
2018-10-16T03:43:26.247Z,62.87
2018-10-16T03:44:06.796Z,62.78
2018-10-16T03:44:47.441Z,62.59
2018-10-16T03:45:27.992Z,62.78
2018-10-16T03:46:08.577Z,62.68
2018-10-16T03:46:49.155Z,63.26
2018-10-16T03:47:29.781Z,63.26
2018-10-16T03:48:10.321Z,62.87
2018-10-16T03:48:50.886Z,62.97
2018-10-16T03:49:31.466Z,62.87
2018-10-16T03:50:12.036Z,62.97
2018-10-16T03:50:52.609Z,63.07
2018-10-16T03:51:33.178Z,63.26
2018-10-16T03:52:13.814Z,62.97
2018-10-16T03:52:54.393Z,62.78
2018-10-16T03:53:34.964Z,62.87
2018-10-16T03:54:15.569Z,63.07
2018-10-16T03:54:56.108Z,62.87
2018-10-16T03:55:36.693Z,62.78
2018-10-16T03:56:17.266Z,62.78
2018-10-16T03:56:57.862Z,63.07
2018-10-16T03:57:38.423Z,62.87
2018-10-16T03:58:19.023Z,63.16
2018-10-16T03:58:59.597Z,63.07
2018-10-16T03:59:40.163Z,62.87
2018-10-16T04:00:20.737Z,63.07
2018-10-16T04:01:01.298Z,62.78
2018-10-16T04:01:41.859Z,62.68
2018-10-16T04:02:22.431Z,62.68
2018-10-16T04:03:02.997Z,63.07
2018-10-16T04:03:43.568Z,62.97
2018-10-16T04:04:24.159Z,62.97
2018-10-16T04:05:04.710Z,63.07
2018-10-16T04:05:45.313Z,62.87
2018-10-16T04:06:25.873Z,62.78
2018-10-16T04:07:06.463Z,62.78
2018-10-16T04:07:47.058Z,62.97
2018-10-16T04:08:27.627Z,63.26
2018-10-16T04:09:08.223Z,63.16
2018-10-16T04:09:48.885Z,63.16
2018-10-16T04:10:29.484Z,63.83
2018-10-16T04:11:10.065Z,63.64
2018-10-16T04:11:50.622Z,63.45
2018-10-16T04:12:31.224Z,63.64
2018-10-16T04:13:11.812Z,63.93
2018-10-16T04:13:52.368Z,63.73
2018-10-16T04:14:32.949Z,63.93
2018-10-16T04:15:13.530Z,64.02
2018-10-16T04:15:54.077Z,64.22
2018-10-16T04:16:34.642Z,63.89
2018-10-16T04:17:15.217Z,64.02
2018-10-16T04:17:55.778Z,63.99
2018-10-16T04:18:36.349Z,63.99
2018-10-16T04:19:16.905Z,63.89
2018-10-16T04:19:57.452Z,64.09
2018-10-16T04:20:38.041Z,63.99
2018-10-16T04:21:18.615Z,64.18
2018-10-16T04:21:59.205Z,64.28
2018-10-16T04:22:39.835Z,64.37
2018-10-16T04:23:20.360Z,64.18
2018-10-16T04:24:00.941Z,63.99
2018-10-16T04:24:41.514Z,64.18
2018-10-16T04:25:22.071Z,64.28
2018-10-16T04:26:02.668Z,64.28
2018-10-16T04:26:43.221Z,64.47
2018-10-16T04:27:23.797Z,64.47
2018-10-16T04:28:04.369Z,64.56
2018-10-16T04:28:44.923Z,64.56
2018-10-16T04:29:25.498Z,64.65
2018-10-16T04:30:06.073Z,64.94
2018-10-16T04:30:46.628Z,65.14
2018-10-16T04:31:27.213Z,65.23
2018-10-16T04:32:07.810Z,65.04
2018-10-16T04:32:48.380Z,64.75
2018-10-16T04:33:28.961Z,65.04
2018-10-16T04:34:09.521Z,65.04
2018-10-16T04:34:50.122Z,65.23
2018-10-16T04:35:30.680Z,65.14
2018-10-16T04:36:11.252Z,64.85
2018-10-16T04:36:51.812Z,65.14
2018-10-16T04:37:32.378Z,64.94
2018-10-16T04:38:12.939Z,65.14
2018-10-16T04:38:53.513Z,65.33
2018-10-16T04:39:34.082Z,65.23
2018-10-16T04:40:14.647Z,65.52
2018-10-16T04:40:55.201Z,65.61
2018-10-16T04:41:35.853Z,66
2018-10-16T04:42:16.396Z,66
2018-10-16T04:42:56.928Z,65.8
2018-10-16T04:43:37.639Z,65.8
2018-10-16T04:44:18.195Z,65.8
2018-10-16T04:44:58.737Z,65.71
2018-10-16T04:45:39.336Z,65.9
2018-10-16T04:46:19.920Z,65.8
2018-10-16T04:47:00.499Z,66.28
2018-10-16T04:47:41.054Z,65.61
2018-10-16T04:48:21.655Z,65.9
2018-10-16T04:49:02.216Z,65.8
2018-10-16T04:49:42.776Z,65.8
2018-10-16T04:50:23.348Z,65.8
2018-10-16T04:51:03.908Z,66.28
2018-10-16T04:51:44.506Z,66
2018-10-16T04:52:25.076Z,66.28
2018-10-16T04:53:05.637Z,66.38
2018-10-16T04:53:46.221Z,66.47
2018-10-16T04:54:26.820Z,66.38
2018-10-16T04:55:07.425Z,66.38
2018-10-16T04:55:47.978Z,66.38
2018-10-16T04:56:28.555Z,66.38
2018-10-16T04:57:09.130Z,66.47
2018-10-16T04:57:49.703Z,66.56
2018-10-16T04:58:30.322Z,66.47
2018-10-16T04:59:10.943Z,66.47
2018-10-16T04:59:51.502Z,66.95
2018-10-16T05:00:32.092Z,66.85
2018-10-16T05:01:12.640Z,66.85
2018-10-16T05:01:53.222Z,66.76
2018-10-16T05:02:33.855Z,66.85
2018-10-16T05:03:14.393Z,66.85
2018-10-16T05:03:54.969Z,66.95
2018-10-16T05:04:35.513Z,66.85
2018-10-16T05:05:16.156Z,66.66
2018-10-16T05:05:56.733Z,66.85
2018-10-16T05:06:37.314Z,67.33
2018-10-16T05:07:17.869Z,67.33
2018-10-16T05:07:58.445Z,67.43
2018-10-16T05:08:38.998Z,67.3
2018-10-16T05:09:19.591Z,67.58
2018-10-16T05:10:00.493Z,67.4
2018-10-16T05:10:41.067Z,67.4
2018-10-16T05:11:21.637Z,67.58
2018-10-16T05:12:02.248Z,67.77
2018-10-16T05:12:42.804Z,67.87
2018-10-16T05:13:23.377Z,67.87
2018-10-16T05:14:04.861Z,67.77
2018-10-16T05:15:57.591Z,67.77
2018-10-16T05:16:38.194Z,67.68
2018-10-16T05:17:18.785Z,67.97
2018-10-16T05:17:59.313Z,67.97
2018-10-16T05:18:39.988Z,67.58
2018-10-16T05:19:20.576Z,67.87
2018-10-16T05:20:01.125Z,68.06
2018-10-16T05:20:41.693Z,67.77
2018-10-16T05:21:22.544Z,68.35
2018-10-16T05:22:03.447Z,68.26
2018-10-16T05:22:44.181Z,68.44
2018-10-16T05:23:24.890Z,68.35
2018-10-16T05:24:05.493Z,68.54
2018-10-16T05:24:46.619Z,68.54
2018-10-16T05:25:27.441Z,68.92
2018-10-16T05:26:08.144Z,68.92
2018-10-16T05:26:48.868Z,68.92
2018-10-16T05:27:30.543Z,68.92
2018-10-16T05:28:11.674Z,68.82
2018-10-16T05:28:52.408Z,68.73
2018-10-16T05:29:33.147Z,69.02
2018-10-16T05:30:13.805Z,68.92
2018-10-16T05:30:55.412Z,68.82
2018-10-16T05:31:36.630Z,68.73
2018-10-16T05:32:17.370Z,68.63
2018-10-16T05:32:58.256Z,68.82
2018-10-16T05:33:39.170Z,68.63
2018-10-16T05:34:20.062Z,68.54
2018-10-16T05:35:00.848Z,68.54
2018-10-16T05:35:41.406Z,68.63
2018-10-16T05:36:21.975Z,68.44
2018-10-16T05:37:02.537Z,68.92
2018-10-16T05:37:43.099Z,68.92
2018-10-16T05:38:23.662Z,68.92
2018-10-16T05:39:04.276Z,68.92
2018-10-16T05:39:44.781Z,68.73
2018-10-16T05:40:25.347Z,69.02
2018-10-16T05:41:05.901Z,68.82
2018-10-16T05:41:46.487Z,69.02
2018-10-16T05:42:27.039Z,68.92
2018-10-16T05:43:07.616Z,68.63
2018-10-16T05:43:48.164Z,68.63
2018-10-16T05:44:28.731Z,69.02
2018-10-16T05:45:09.285Z,69.4
2018-10-16T05:45:49.853Z,69.31
2018-10-16T05:46:30.450Z,69.21
2018-10-16T05:47:11.011Z,69.68
2018-10-16T05:47:51.580Z,69.31
2018-10-16T05:48:32.140Z,69.21
2018-10-16T05:49:12.735Z,69.59
2018-10-16T05:49:53.296Z,69.59
2018-10-16T05:50:33.857Z,69.4
2018-10-16T05:51:14.406Z,69.02
2018-10-16T05:51:54.964Z,69.59
2018-10-16T05:52:35.549Z,69.59
2018-10-16T05:53:16.133Z,69.31
2018-10-16T05:53:56.714Z,69.68
2018-10-16T05:54:37.256Z,69.49
2018-10-16T05:55:17.815Z,69.97
2018-10-16T05:55:58.402Z,69.68
2018-10-16T05:56:38.985Z,69.68
2018-10-16T05:57:19.568Z,69.97
2018-10-16T05:58:00.133Z,70.07
2018-10-16T05:58:40.702Z,69.78
2018-10-16T05:59:21.318Z,69.31
2018-10-16T06:00:01.897Z,69.59
2018-10-16T06:00:42.422Z,69.49
2018-10-16T06:01:23.036Z,69.59
2018-10-16T06:02:03.637Z,69.4
2018-10-16T06:02:44.201Z,69.78
2018-10-16T06:03:24.761Z,69.31
2018-10-16T06:04:05.313Z,69.59
2018-10-16T06:04:45.929Z,69.4
2018-10-16T06:05:26.547Z,69.4
2018-10-16T06:06:07.084Z,69.53
2018-10-16T06:06:47.646Z,69.49
2018-10-16T06:07:28.275Z,69.53
2018-10-16T06:08:08.837Z,69.72
2018-10-16T06:08:49.421Z,69.11
2018-10-16T06:09:29.994Z,69.02
2018-10-16T06:10:10.576Z,69.43
2018-10-16T06:10:51.208Z,69.11
2018-10-16T06:11:31.689Z,69.59
2018-10-16T06:12:12.313Z,69.53
2018-10-16T06:12:52.836Z,69.68
2018-10-16T06:13:33.444Z,69.87
2018-10-16T06:14:14.010Z,69.78
2018-10-16T06:14:54.575Z,69.87
2018-10-16T06:15:35.121Z,69.97
2018-10-16T06:16:15.695Z,69.68
2018-10-16T06:16:56.304Z,69.68
2018-10-16T06:17:36.851Z,70.01
2018-10-16T06:18:17.409Z,70.01
2018-10-16T06:18:58.017Z,69.68
2018-10-16T06:19:38.560Z,69.72
2018-10-16T06:20:19.120Z,70.26
2018-10-16T06:20:59.731Z,70.07
2018-10-16T06:21:40.315Z,70.1
2018-10-16T06:22:20.856Z,70.2
2018-10-16T06:23:01.417Z,69.82
2018-10-16T06:23:42.010Z,69.97
2018-10-16T06:24:22.647Z,70.16
2018-10-16T06:25:03.152Z,69.31
2018-10-16T06:25:43.718Z,70.26
2018-10-16T06:26:24.353Z,69.97
2018-10-16T06:27:04.890Z,70.16
2018-10-16T06:27:45.516Z,70.29
2018-10-16T06:28:26.050Z,71.15
2018-10-16T06:29:06.610Z,73.73
2018-10-16T06:29:47.205Z,75.54
2018-10-16T06:30:27.764Z,77.17
2018-10-16T06:31:08.321Z,78.03
2018-10-16T06:31:48.914Z,78.51
2018-10-16T06:32:29.472Z,77.4
2018-10-16T06:33:10.183Z,77.01
2018-10-16T06:33:50.725Z,77.11
2018-10-16T06:34:31.306Z,77.59
2018-10-16T06:35:11.936Z,77.44
2018-10-16T06:35:52.528Z,76.67
2018-10-16T06:36:33.076Z,75.81
2018-10-16T06:37:13.633Z,75.14
2018-10-16T06:37:54.210Z,74.48
2018-10-16T06:38:34.764Z,73.75
2018-10-16T06:39:15.343Z,72.41
2018-10-16T06:39:55.935Z,72.22
2018-10-16T06:40:36.587Z,71.73
2018-10-16T06:41:17.227Z,71.83
2018-10-16T06:41:57.658Z,70.3
2018-10-16T06:42:38.225Z,69.57
2018-10-16T06:43:18.779Z,69.29
2018-10-16T06:43:59.483Z,68.23
2018-10-16T06:44:39.946Z,67.85
2018-10-16T06:45:20.569Z,67.47
2018-10-16T06:46:01.081Z,66.8
2018-10-16T06:46:41.747Z,66.25
2018-10-16T06:47:22.410Z,65.97
2018-10-16T06:48:02.921Z,65.88
2018-10-16T06:48:43.953Z,64.43
2018-10-16T06:49:23.990Z,64.34
2018-10-16T06:50:04.566Z,64.15
2018-10-16T06:50:45.169Z,64.25
2018-10-16T06:51:25.755Z,63.67
2018-10-16T06:52:06.344Z,64.25
2018-10-16T06:52:46.935Z,64.05
2018-10-16T06:53:27.633Z,64.05
2018-10-16T06:54:08.101Z,64.05
2018-10-16T06:54:48.704Z,63.29
2018-10-16T06:55:29.231Z,62.71
2018-10-16T06:56:09.836Z,63.57
2018-10-16T06:56:50.413Z,64.15
2018-10-16T06:57:31.029Z,64.92
2018-10-16T06:58:11.596Z,64.34
2018-10-16T06:58:52.144Z,64.15
2018-10-16T06:59:32.694Z,64.34
2018-10-16T07:00:13.289Z,64.15
2018-10-16T07:00:53.813Z,64.25
2018-10-16T07:01:34.381Z,63.76
2018-10-16T07:02:14.974Z,64.15
2018-10-16T07:02:55.529Z,64.15
2018-10-16T07:03:36.091Z,63.99
2018-10-16T07:04:16.676Z,63.19
2018-10-16T07:04:57.230Z,62.93
2018-10-16T07:05:37.806Z,62.26
2018-10-16T07:06:18.407Z,62.36
2018-10-16T07:06:58.946Z,62.26
2018-10-16T07:07:39.538Z,62.17
2018-10-16T07:08:20.117Z,61.69
2018-10-16T07:09:00.679Z,62.26
2018-10-16T07:09:41.273Z,62.36
2018-10-16T07:10:21.833Z,62.46
2018-10-16T07:11:02.386Z,61.98
2018-10-16T07:11:42.974Z,61.4
2018-10-16T07:12:23.543Z,61.69
2018-10-16T07:13:04.139Z,61.79
2018-10-16T07:13:44.751Z,61.69
2018-10-16T07:14:25.318Z,61.31
2018-10-16T07:15:05.996Z,60.54
2018-10-16T07:15:46.505Z,60.54
2018-10-16T07:16:27.183Z,60.25
2018-10-16T07:17:07.730Z,60.35
2018-10-16T07:17:48.291Z,61.11
2018-10-16T07:18:28.890Z,61.02
2018-10-16T07:19:09.456Z,61.11
2018-10-16T07:19:50.009Z,59.58
2018-10-16T07:20:30.567Z,59.48
2018-10-16T07:21:11.181Z,59.48
2018-10-16T07:21:51.685Z,58.53
2018-10-16T07:22:32.255Z,59.2
2018-10-16T07:23:12.844Z,59.39
2018-10-16T07:23:53.454Z,59.94
2018-10-16T07:24:34.068Z,60.13
2018-10-16T07:25:14.629Z,60.8
2018-10-16T07:25:55.212Z,61.66
2018-10-16T07:26:35.781Z,61.88
2018-10-16T07:27:16.357Z,61.6
2018-10-16T07:27:56.934Z,61.11
2018-10-16T07:28:37.536Z,61.5
2018-10-16T07:29:18.090Z,61.69
2018-10-16T07:29:58.682Z,61.6
2018-10-16T07:30:39.187Z,60.93
2018-10-16T07:31:19.797Z,61.11
2018-10-16T07:32:00.371Z,60.73
2018-10-16T07:32:40.951Z,60.57
2018-10-16T07:33:21.518Z,60.19
2018-10-16T07:34:02.090Z,59.8
2018-10-16T07:34:42.685Z,59.55
2018-10-16T07:35:23.248Z,59.36
2018-10-16T07:36:03.866Z,58.3
2018-10-16T07:36:44.466Z,57.95
2018-10-16T07:37:25.026Z,57.28
2018-10-16T07:38:05.642Z,56.73
2018-10-16T07:38:46.181Z,55.96
2018-10-16T07:39:26.715Z,55.86
2018-10-16T07:40:07.261Z,55.22
2018-10-16T07:40:47.848Z,54.55
2018-10-16T07:41:28.396Z,54.25
2018-10-16T07:42:08.980Z,53.52
2018-10-16T07:42:49.530Z,52.65
2018-10-16T07:43:30.098Z,52.2
2018-10-16T07:44:10.666Z,51.33
2018-10-16T07:44:51.309Z,50.49
2018-10-16T07:45:31.889Z,50.49
2018-10-16T07:46:12.446Z,50.42
2018-10-16T07:46:53.018Z,49.36
2018-10-16T07:47:33.616Z,48.97
2018-10-16T07:48:14.189Z,48.23
2018-10-16T07:48:54.764Z,47.65
2018-10-16T07:49:35.329Z,47.46
2018-10-16T07:50:15.944Z,46.71
2018-10-16T07:50:56.515Z,45.56
2018-10-16T07:51:37.100Z,45.65
2018-10-16T07:52:17.664Z,45.46
2018-10-16T07:52:58.246Z,45.2
2018-10-16T07:53:38.821Z,44.9
2018-10-16T07:54:19.416Z,44.52
2018-10-16T07:54:59.977Z,44.15
2018-10-16T07:55:40.556Z,43.67
2018-10-16T07:56:21.119Z,43.38
2018-10-16T07:57:01.724Z,43.12
2018-10-16T07:57:42.259Z,42.05
2018-10-16T07:58:22.847Z,42.44
2018-10-16T07:59:03.425Z,42.44
2018-10-16T07:59:43.963Z,42.35
2018-10-16T08:00:24.588Z,41.11
2018-10-16T08:01:05.137Z,41.2
2018-10-16T08:01:45.736Z,41.3
2018-10-16T08:02:26.330Z,41.3
2018-10-16T08:03:06.904Z,41.3
2018-10-16T08:03:47.505Z,41.02
2018-10-16T08:04:28.092Z,40.92
2018-10-16T08:05:08.674Z,40.92
2018-10-16T08:05:49.252Z,41.02
2018-10-16T08:06:29.825Z,40.92
2018-10-16T08:07:10.408Z,41.52
2018-10-16T08:07:50.982Z,40.84
2018-10-16T08:08:31.554Z,40.45
2018-10-16T08:09:12.113Z,40.17
2018-10-16T08:09:52.705Z,40.36
2018-10-16T08:10:33.257Z,39.97
2018-10-16T08:11:13.859Z,40.17
2018-10-16T08:11:54.406Z,40.26
2018-10-16T08:12:34.964Z,40.26
2018-10-16T08:13:30.181Z,40.17
2018-10-16T08:15:17.694Z,40.07
2018-10-16T08:15:58.257Z,39.69
2018-10-16T08:16:38.829Z,39.69
2018-10-16T08:17:19.520Z,39.59
2018-10-16T08:17:59.979Z,39.69
2018-10-16T08:18:40.557Z,39.69
2018-10-16T08:19:21.124Z,39.59
2018-10-16T08:20:01.691Z,39.49
2018-10-16T08:20:42.273Z,39.59
2018-10-16T08:21:22.823Z,39.2
2018-10-16T08:22:03.401Z,39.59
2018-10-16T08:22:43.949Z,39.49
2018-10-16T08:23:24.533Z,38.81
2018-10-16T08:24:05.108Z,38.53
2018-10-16T08:24:45.675Z,38.62
2018-10-16T08:25:26.246Z,38.81
2018-10-16T08:26:06.825Z,39.2
2018-10-16T08:26:47.434Z,39.39
2018-10-16T08:27:27.968Z,39.59
2018-10-16T08:28:08.540Z,39.86
2018-10-16T08:28:49.095Z,39.97
2018-10-16T08:29:29.695Z,39.57
2018-10-16T08:30:10.328Z,39.86
2018-10-16T08:30:50.845Z,39.86
2018-10-16T08:31:31.398Z,40.53
2018-10-16T08:32:11.977Z,40.82
2018-10-16T08:32:52.548Z,40.8
2018-10-16T08:33:33.116Z,41.09
2018-10-16T08:34:13.773Z,41.77
2018-10-16T08:34:54.300Z,41.67
2018-10-16T08:35:34.835Z,40.97
2018-10-16T08:36:15.545Z,41.55
2018-10-16T08:36:56.174Z,42.52
2018-10-16T08:37:36.553Z,42.13
2018-10-16T08:38:17.125Z,42.32
2018-10-16T08:38:57.705Z,43.46
2018-10-16T08:39:38.331Z,42.79
2018-10-16T08:40:18.913Z,42.69
2018-10-16T08:40:59.468Z,42.69
2018-10-16T08:41:40.032Z,43.37
2018-10-16T08:42:20.603Z,43.55
2018-10-16T08:43:01.161Z,43.54
2018-10-16T08:43:41.749Z,43.54
2018-10-16T08:44:22.319Z,44.21
2018-10-16T08:45:03.005Z,44.02
2018-10-16T08:45:43.457Z,44.89
2018-10-16T08:46:24.026Z,44.98
2018-10-16T08:47:04.616Z,44.59